KTCL/TCL METAR and TAF weather

Enter ICAO airport designator
Station Type Date Time Source
KTCL METAR 2022/12/04 10:53 UTC NOAA

KTCL 041053Z AUTO 35005KT 10SM FEW016 BKN048 08/06 A3027 RMK AO2 SLP248 T00830056


Station Type Date Time Source
KTCL Decoded METAR 2022/12/04 10:53 UTC NOAA

TUSCALOOSA REGIONAL AIRPORT, AL, United States (KTCL) 33-13N 087-37W
Dec 04, 2022 - 05:53 AM EST / 2022.12.04 1053 UTC
Wind: from the N (350 degrees) at 6 MPH (5 KT):0
Visibility: 10 mile(s):0
Sky conditions: mostly cloudy
Temperature: 46.9 F (8.3 C)
Dew Point: 42.1 F (5.6 C)
Relative Humidity: 83%
Pressure (altimeter): 30.27 in. Hg (1025 hPa)
ob: KTCL 041053Z AUTO 35005KT 10SM FEW016 BKN048 08/06 A3027 RMK AO2 SLP248 T00830056
cycle: 11

Station Type Date Time Source
KTCL TAF 2022/12/04 06:22 UTC NOAA

TAF KTCL 040520Z 0406/0506 02006KT P6SM SCT250
FM041800 34006KT P6SM BKN150
FM050000 VRB02KT P6SM BKN100

Example: see airport list